KBVO/BVO METAR and TAF weather

Enter ICAO airport designator
Station Type Date Time Source
KBVO METAR 2020/06/06 20:53 UTC NOAA

KBVO 062053Z 17007KT 10SM FEW050 34/23 A2991 RMK AO2 SLP117 T03390228 58017


Station Type Date Time Source
KBVO Decoded METAR 2020/06/06 20:53 UTC NOAA

BARTLESVILLE MUNICIPAL AIRPORT , OK, United States (KBVO) 36-46N 96-01W 210M
Jun 06, 2020 - 04:53 PM EDT / 2020.06.06 2053 UTC
Wind: from the S (170 degrees) at 8 MPH (7 KT):0
Visibility: 10 mile(s):0
Sky conditions: mostly clear
Temperature: 93.0 F (33.9 C)
Heat index: 101.8 F (38.8 C):1
Dew Point: 73.0 F (22.8 C)
Relative Humidity: 52%
Pressure (altimeter): 29.91 in. Hg (1012 hPa)
Pressure tendency: 0.05 inches (1.7 hPa) lower than three hours ago
ob: KBVO 062053Z 17007KT 10SM FEW050 34/23 A2991 RMK AO2 SLP117 T03390228 58017
cycle: 21

Station Type Date Time Source
KBVO TAF 2020/06/06 18:22 UTC NOAA

TAF KBVO 061720Z 0618/0718 16006KT P6SM FEW040
FM070000 15005KT P6SM SKC
FM070400 00000KT P6SM FEW250
FM071300 17006KT P6SM SKC

Example: see airport list